Time;durP1;ratioP1;P1;durP2;ratioP2;P2;SDS_P1;SDS_P2;PMS_P1;PMS_P2;Temp;Humidity;BMP_temperature;BMP_pressure;BME280_temperature;BME280_humidity;BME280_pressure;Samples;Min_cycle;Max_cycle;Signal;HPM_P1;HPM_P2
2022/06/04 00:00:09;;;;;;;6.43;4.50;;;;;;;18.35;72.53;100676.88;5080822;28;20032;-77
2022/06/04 00:02:43;;;;;;;7.07;3.92;;;;;;;18.44;73.01;100680.13;5080536;28;20035;-78
2022/06/04 00:05:11;;;;;;;4.88;4.10;;;;;;;18.46;73.99;100679.16;5075065;28;20037;-77
2022/06/04 00:07:36;;;;;;;5.15;4.38;;;;;;;18.48;74.40;100687.13;5079540;28;20033;-77
2022/06/04 00:15:35;;;;;;;5.55;4.28;;;;;;;18.37;76.90;100674.16;5078383;28;20044;-77
2022/06/04 00:18:01;;;;;;;6.45;4.10;;;;;;;18.42;76.50;100671.28;5080784;28;20036;-77
2022/06/04 00:20:26;;;;;;;5.97;4.88;;;;;;;18.44;76.64;100669.44;5081689;28;20043;-77
2022/06/04 00:22:59;;;;;;;5.57;4.40;;;;;;;18.39;76.48;100667.84;5081698;28;20065;-77
2022/06/04 00:25:25;;;;;;;8.10;5.30;;;;;;;18.39;76.52;100669.59;5075940;28;20505;-77
2022/06/04 00:27:51;;;;;;;5.80;4.80;;;;;;;18.40;77.52;100674.91;5082447;28;20115;-77
2022/06/04 00:30:16;;;;;;;5.70;5.05;;;;;;;18.42;76.92;100665.94;5079888;28;20044;-77
2022/06/04 00:32:42;;;;;;;6.10;5.07;;;;;;;18.42;77.86;100655.25;5079860;28;20107;-77
2022/06/04 00:35:08;;;;;;;6.55;5.05;;;;;;;18.46;77.65;100652.44;5079961;28;20043;-77
2022/06/04 00:37:35;;;;;;;5.20;4.57;;;;;;;18.52;78.31;100645.97;5078724;28;20040;-77
2022/06/04 00:40:02;;;;;;;6.13;5.50;;;;;;;18.54;78.02;100641.47;5072974;28;20025;-77
2022/06/04 00:42:27;;;;;;;6.45;5.70;;;;;;;18.50;78.76;100642.53;5078850;28;20039;-77
2022/06/04 00:45:34;;;;;;;6.20;4.95;;;;;;;18.50;79.73;100647.88;5080196;28;20028;-77
2022/06/04 00:48:01;;;;;;;6.13;5.53;;;;;;;18.54;78.49;100642.31;5066248;28;20120;-78
2022/06/04 00:50:29;;;;;;;7.03;4.78;;;;;;;18.56;78.47;100644.94;5082677;28;20043;-78
2022/06/04 00:52:57;;;;;;;6.35;5.53;;;;;;;18.53;78.64;100643.25;5080605;28;20037;-78
2022/06/04 00:55:23;;;;;;;6.03;5.13;;;;;;;18.49;79.15;100640.75;5080325;28;20032;-77
2022/06/04 00:58:09;;;;;;;7.13;5.10;;;;;;;18.47;79.11;100639.94;5082694;28;20024;-77
2022/06/04 01:00:41;;;;;;;8.60;6.03;;;;;;;18.28;81.04;100642.41;5082822;28;20109;-77
2022/06/04 01:03:18;;;;;;;6.85;5.50;;;;;;;18.16;81.03;100633.94;5075514;28;20042;-77
2022/06/04 01:06:02;;;;;;;8.20;5.40;;;;;;;18.09;81.89;100639.53;5080053;28;20032;-77
2022/06/04 01:08:52;;;;;;;7.70;5.70;;;;;;;18.07;81.71;100630.69;5076867;28;20024;-78
2022/06/04 01:11:33;;;;;;;7.18;5.47;;;;;;;18.12;81.00;100631.41;5079177;28;20043;-77
2022/06/04 01:14:20;;;;;;;8.43;6.30;;;;;;;18.20;80.79;100633.81;5059044;28;20110;-77
2022/06/04 01:17:10;;;;;;;9.07;7.22;;;;;;;18.14;83.09;100645.59;5076860;28;20047;-77
2022/06/04 01:20:00;;;;;;;8.02;5.88;;;;;;;18.13;82.63;100644.72;5076781;28;20068;-77
2022/06/04 01:22:49;;;;;;;6.82;5.93;;;;;;;18.13;82.25;100639.38;5081931;28;20379;-77
2022/06/04 01:25:46;;;;;;;7.55;6.30;;;;;;;18.11;83.92;100643.03;5065365;28;20501;-77
2022/06/04 01:28:16;;;;;;;6.75;5.78;;;;;;;18.15;82.31;100641.97;5076874;28;20040;-77
2022/06/04 01:30:45;;;;;;;7.35;5.97;;;;;;;18.17;82.07;100651.69;5078052;28;20510;-77
2022/06/04 01:33:20;;;;;;;7.80;6.13;;;;;;;18.19;82.21;100654.31;5074823;28;20036;-77
2022/06/04 01:36:09;;;;;;;7.53;5.70;;;;;;;18.17;82.32;100648.16;5077641;28;20043;-77
2022/06/04 01:38:44;;;;;;;7.93;6.70;;;;;;;18.06;83.59;100656.53;5079189;28;20033;-77
2022/06/04 01:41:17;;;;;;;8.57;6.18;;;;;;;18.05;83.02;100661.91;5058006;28;20041;-77
2022/06/04 01:43:54;;;;;;;7.05;6.43;;;;;;;17.98;83.72;100663.09;5080859;28;20051;-77
2022/06/04 01:46:25;;;;;;;7.38;6.28;;;;;;;17.95;82.82;100662.25;5088438;28;20064;-77
2022/06/04 01:48:55;;;;;;;8.40;6.10;;;;;;;18.00;82.75;100666.56;5080449;28;20470;-77
2022/06/04 01:51:25;;;;;;;7.65;6.38;;;;;;;17.99;83.62;100672.84;5080978;28;20074;-77
2022/06/04 01:53:55;;;;;;;7.00;6.20;;;;;;;18.01;83.65;100673.66;5063906;28;20479;-77
2022/06/04 01:56:25;;;;;;;8.63;7.22;;;;;;;18.10;84.28;100662.63;5080298;28;20044;-77
2022/06/04 01:58:55;;;;;;;8.40;6.63;;;;;;;18.20;84.10;100656.03;5079878;28;20075;-78
2022/06/04 02:01:27;;;;;;;7.72;6.90;;;;;;;18.28;83.11;100647.75;5082083;28;20043;-78
2022/06/04 02:04:13;;;;;;;6.57;5.65;;;;;;;18.28;83.01;100648.63;5078353;28;20441;-78
2022/06/04 02:07:29;;;;;;;7.32;6.70;;;;;;;18.27;83.57;100657.56;5079248;28;20495;-77
2022/06/04 02:09:35;;;;;;;8.48;7.10;;;;;;;18.14;83.09;100656.28;5081535;28;20032;-77
2022/06/04 02:12:04;;;;;;;8.02;7.22;;;;;;;18.02;83.79;100662.03;5081531;28;20376;-77
2022/06/04 02:14:29;;;;;;;7.75;6.47;;;;;;;17.94;83.67;100664.97;5085849;28;20035;-77
2022/06/04 02:17:01;;;;;;;6.40;5.72;;;;;;;17.96;81.77;100655.97;5082643;28;20090;-77
2022/06/04 02:19:27;;;;;;;7.50;6.80;;;;;;;17.92;82.36;100641.00;5083734;28;20067;-77
2022/06/04 02:21:54;;;;;;;8.25;7.03;;;;;;;17.89;83.32;100640.22;5083971;28;20070;-77
2022/06/04 02:24:19;;;;;;;8.10;7.30;;;;;;;17.88;83.63;100628.69;5082557;28;20036;-77
2022/06/04 02:26:45;;;;;;;9.02;6.53;;;;;;;17.94;82.83;100632.94;5085426;28;20127;-78
2022/06/04 02:29:10;;;;;;;6.28;5.68;;;;;;;18.01;82.62;100638.94;5082283;28;20194;-77
2022/06/04 02:31:50;;;;;;;7.18;6.47;;;;;;;18.01;82.58;100634.47;5083736;28;20044;-77
2022/06/04 02:34:27;;;;;;;8.85;6.65;;;;;;;17.92;83.08;100641.00;5081538;28;20063;-77
2022/06/04 02:37:13;;;;;;;8.98;8.13;;;;;;;17.73;85.15;100634.50;5083397;28;20140;-77
2022/06/04 02:39:49;;;;;;;8.55;7.50;;;;;;;17.66;86.02;100657.00;5081010;28;20025;-77
2022/06/04 02:42:33;;;;;;;8.05;7.25;;;;;;;17.72;86.05;100649.66;5081325;28;20119;-77
2022/06/04 02:45:09;;;;;;;8.30;7.47;;;;;;;17.76;84.85;100650.41;5082342;28;20036;-77
2022/06/04 02:47:47;;;;;;;9.68;7.40;;;;;;;17.79;84.96;100650.38;5079511;28;20726;-77
2022/06/04 02:50:21;;;;;;;7.55;6.85;;;;;;;17.88;84.59;100634.03;5081894;28;20043;-77
2022/06/04 02:52:48;;;;;;;8.88;7.88;;;;;;;17.93;84.00;100636.53;5093693;28;20614;-77
2022/06/04 02:55:18;;;;;;;8.32;7.53;;;;;;;17.95;84.14;100638.22;5082807;28;20086;-77
2022/06/04 02:57:47;;;;;;;10.68;9.63;;;;;;;17.92;85.10;100641.00;5080628;28;20487;-77
2022/06/04 03:00:17;;;;;;;9.27;8.48;;;;;;;17.91;85.73;100641.91;5078404;28;20093;-77
2022/06/04 03:02:43;;;;;;;8.13;7.32;;;;;;;17.93;84.99;100644.53;5082620;28;20548;-77
2022/06/04 03:05:13;;;;;;;7.68;6.88;;;;;;;18.00;84.77;100634.50;5080836;28;20486;-78
2022/06/04 03:07:41;;;;;;;8.50;7.70;;;;;;;18.06;84.64;100632.50;5079815;28;20055;-78
2022/06/04 03:10:11;;;;;;;8.75;7.57;;;;;;;18.11;84.58;100635.88;5084379;28;20032;-77
2022/06/04 03:12:37;;;;;;;8.80;7.13;;;;;;;18.11;84.65;100638.56;5075109;28;20044;-77
2022/06/04 03:15:03;;;;;;;9.40;7.07;;;;;;;18.10;84.45;100655.53;5077565;28;20554;-77
2022/06/04 03:17:28;;;;;;;7.72;6.80;;;;;;;18.10;84.42;100660.88;5077258;28;20363;-78
2022/06/04 03:19:54;;;;;;;9.50;8.60;;;;;;;18.12;84.58;100663.47;5082360;28;20043;-78
2022/06/04 03:22:19;;;;;;;9.93;8.57;;;;;;;18.05;85.06;100677.94;5075361;28;20028;-78
2022/06/04 03:24:44;;;;;;;8.63;7.82;;;;;;;18.00;84.74;100674.56;5082003;28;20040;-77
2022/06/04 03:27:10;;;;;;;7.75;6.95;;;;;;;18.03;84.29;100679.81;5080356;28;20047;-78
2022/06/04 03:29:35;;;;;;;9.35;8.07;;;;;;;17.95;84.72;100678.28;5082259;28;20075;-77
2022/06/04 03:32:00;;;;;;;10.68;9.77;;;;;;;17.91;85.04;100675.75;5074528;28;20063;-77
2022/06/04 03:34:26;;;;;;;9.85;8.95;;;;;;;17.83;85.84;100676.03;5083075;28;20040;-77
2022/06/04 03:36:51;;;;;;;10.32;9.27;;;;;;;17.85;85.15;100679.53;5075728;28;20040;-77
2022/06/04 03:39:17;;;;;;;9.73;8.77;;;;;;;17.83;85.81;100672.47;5083634;28;20562;-77
2022/06/04 03:41:42;;;;;;;9.15;7.53;;;;;;;17.84;85.33;100675.13;5081450;28;20043;-77
2022/06/04 03:44:08;;;;;;;11.82;7.85;;;;;;;17.81;85.34;100679.66;5082325;28;20072;-77
2022/06/04 03:46:33;;;;;;;9.95;9.05;;;;;;;17.74;87.35;100678.97;5080610;28;20040;-77
2022/06/04 03:48:59;;;;;;;9.50;8.35;;;;;;;17.73;86.67;100683.41;5083305;28;20036;-77
2022/06/04 03:51:27;;;;;;;10.10;9.07;;;;;;;17.68;86.86;100676.50;5079746;28;20139;-78
2022/06/04 03:53:53;;;;;;;8.88;7.97;;;;;;;17.65;87.18;100673.94;5083153;28;20036;-77
2022/06/04 03:56:18;;;;;;;8.15;7.45;;;;;;;17.69;87.63;100670.25;5081902;28;20051;-77
2022/06/04 03:58:44;;;;;;;9.55;8.68;;;;;;;17.70;88.58;100677.31;5081756;28;20063;-77
2022/06/04 04:01:21;;;;;;;8.85;7.95;;;;;;;17.72;88.65;100675.47;5082525;28;20441;-78
2022/06/04 04:03:47;;;;;;;10.45;9.35;;;;;;;17.79;87.77;100674.41;5075066;28;20039;-77
2022/06/04 04:06:15;;;;;;;9.07;8.27;;;;;;;17.80;87.38;100673.47;5069251;28;20040;-77
2022/06/04 04:08:41;;;;;;;11.27;9.70;;;;;;;17.73;89.00;100663.88;5071348;28;20024;-77
2022/06/04 04:11:14;;;;;;;9.73;8.82;;;;;;;17.79;89.45;100661.06;5082333;28;20571;-77
2022/06/04 04:13:40;;;;;;;10.43;9.38;;;;;;;17.89;89.08;100661.59;5073678;28;20039;-76
2022/06/04 04:16:07;;;;;;;8.75;7.95;;;;;;;18.02;87.38;100672.72;5073515;28;20038;-77
2022/06/04 04:18:34;;;;;;;8.98;8.15;;;;;;;18.12;86.86;100677.69;5076987;28;20411;-77
2022/06/04 04:21:08;;;;;;;8.52;7.72;;;;;;;18.25;85.83;100686.13;5078418;28;20502;-78
2022/06/04 04:23:34;;;;;;;9.50;8.60;;;;;;;18.29;85.91;100670.91;5078275;28;20043;-77
2022/06/04 04:25:59;;;;;;;10.27;9.30;;;;;;;18.36;86.45;100659.91;5081696;28;20035;-77
2022/06/04 04:28:25;;;;;;;9.65;8.85;;;;;;;18.53;85.65;100675.34;5081757;28;20614;-77
2022/06/04 04:30:50;;;;;;;9.30;8.40;;;;;;;18.53;85.52;100672.66;5079967;28;20048;-78
2022/06/04 04:33:15;;;;;;;9.30;8.40;;;;;;;18.51;85.36;100673.66;5079153;28;20119;-77
2022/06/04 04:35:41;;;;;;;9.20;8.30;;;;;;;18.46;84.31;100673.81;5082708;28;20050;-77
2022/06/04 04:38:07;;;;;;;8.90;8.00;;;;;;;18.36;84.68;100675.06;5080539;28;20119;-77
2022/06/04 04:40:33;;;;;;;8.90;8.00;;;;;;;18.28;83.48;100670.00;5081517;28;20123;-77
2022/06/04 04:42:59;;;;;;;8.30;7.47;;;;;;;18.34;82.44;100671.59;5081104;28;20036;-78
2022/06/04 04:45:25;;;;;;;8.57;7.55;;;;;;;18.40;82.05;100672.22;5072336;28;20032;-77
2022/06/04 04:47:51;;;;;;;9.05;8.20;;;;;;;18.45;80.99;100676.56;5075667;28;20036;-77
2022/06/04 04:50:24;;;;;;;8.38;7.63;;;;;;;18.49;80.58;100667.47;5076201;28;20040;-76
2022/06/04 04:52:50;;;;;;;8.02;7.32;;;;;;;18.46;79.90;100663.13;5074203;28;20028;-77
2022/06/04 04:55:15;;;;;;;8.70;7.80;;;;;;;18.54;80.27;100670.84;5080460;28;20032;-77
2022/06/04 04:57:41;;;;;;;10.75;7.70;;;;;;;18.57;80.70;100670.75;5079630;28;20052;-77
2022/06/04 05:00:08;;;;;;;9.88;8.60;;;;;;;18.57;79.71;100670.75;5075618;28;20040;-77
2022/06/04 05:02:34;;;;;;;8.30;7.30;;;;;;;18.40;80.13;100669.56;5081556;28;20047;-77
2022/06/04 05:04:59;;;;;;;8.50;7.50;;;;;;;18.29;80.17;100674.44;5078887;28;20042;-77
2022/06/04 05:07:24;;;;;;;8.32;7.13;;;;;;;18.24;79.43;100668.38;5081628;28;20048;-77
2022/06/04 05:09:50;;;;;;;7.32;6.65;;;;;;;18.32;79.73;100676.13;5080165;28;20032;-77
2022/06/04 05:12:15;;;;;;;8.75;7.35;;;;;;;18.36;79.10;100683.94;5082194;28;20040;-78
2022/06/04 05:14:41;;;;;;;8.25;7.38;;;;;;;18.37;78.14;100685.72;5079480;28;20032;-77
2022/06/04 05:17:06;;;;;;;7.32;6.63;;;;;;;18.50;76.99;100685.28;5082293;28;20082;-78
2022/06/04 05:19:31;;;;;;;7.57;6.82;;;;;;;18.62;75.38;100676.78;5080436;28;20033;-77
2022/06/04 05:21:57;;;;;;;6.95;6.25;;;;;;;18.69;74.69;100680.13;5080659;28;20063;-78
2022/06/04 05:24:26;;;;;;;7.00;6.00;;;;;;;18.76;74.38;100682.53;5069385;28;20054;-77
2022/06/04 05:26:53;;;;;;;7.10;6.40;;;;;;;18.78;75.32;100686.00;5083284;28;20040;-77
2022/06/04 05:29:20;;;;;;;7.43;6.50;;;;;;;18.87;75.15;100690.16;5078476;28;20063;-77
2022/06/04 05:31:46;;;;;;;7.68;6.40;;;;;;;18.96;74.03;100687.09;5081071;28;20177;-77
2022/06/04 05:34:12;;;;;;;6.32;5.72;;;;;;;19.05;73.64;100692.13;5080788;28;20119;-77
2022/06/04 05:36:38;;;;;;;6.63;6.00;;;;;;;19.04;72.90;100697.50;5080345;28;20437;-77
2022/06/04 05:39:07;;;;;;;7.90;5.95;;;;;;;18.98;73.54;100692.41;5082281;28;20088;-77
2022/06/04 05:41:34;;;;;;;7.30;6.57;;;;;;;19.00;74.18;100698.59;5078275;28;20065;-78
2022/06/04 05:43:59;;;;;;;7.68;6.88;;;;;;;18.93;76.50;100705.94;5085716;28;20409;-78
2022/06/04 05:46:25;;;;;;;8.05;6.35;;;;;;;18.91;75.56;100707.81;5081694;28;20115;-77
2022/06/04 05:48:51;;;;;;;7.10;6.40;;;;;;;18.98;74.50;100703.13;5088119;28;20029;-77
2022/06/04 05:51:20;;;;;;;7.75;6.50;;;;;;;19.05;74.59;100707.31;5073478;28;20032;-77
2022/06/04 05:53:46;;;;;;;6.65;6.00;;;;;;;19.15;74.75;100707.78;5081868;28;20127;-77
2022/06/04 05:56:13;;;;;;;6.88;6.07;;;;;;;19.18;73.17;100718.41;5081076;28;20028;-77
2022/06/04 05:58:38;;;;;;;6.88;6.18;;;;;;;19.12;74.18;100719.50;5073463;28;20123;-77
2022/06/04 06:01:04;;;;;;;8.13;6.35;;;;;;;19.08;73.69;100711.66;5079897;28;20111;-77
2022/06/04 06:03:30;;;;;;;7.45;6.72;;;;;;;18.93;72.88;100713.09;5083978;28;20036;-78
2022/06/04 06:05:55;;;;;;;8.27;7.03;;;;;;;18.87;73.64;100721.38;5082680;28;20040;-77
2022/06/04 06:08:21;;;;;;;7.30;6.60;;;;;;;18.97;74.05;100717.44;5075714;28;20514;-77
2022/06/04 06:10:46;;;;;;;10.52;6.60;;;;;;;19.07;73.11;100718.78;5071771;28;20090;-77
2022/06/04 06:13:12;;;;;;;7.72;5.70;;;;;;;19.13;72.60;100723.94;5069315;28;20043;-78
2022/06/04 06:15:37;;;;;;;8.93;6.75;;;;;;;19.15;72.68;100723.84;5071657;28;20067;-75
2022/06/04 06:18:05;;;;;;;10.13;6.43;;;;;;;19.26;73.31;100725.19;5071967;28;20402;-77
2022/06/04 06:20:31;;;;;;;7.90;6.38;;;;;;;19.32;72.90;100724.06;5087691;28;20081;-76
2022/06/04 06:22:57;;;;;;;7.25;6.53;;;;;;;19.27;75.27;100731.41;5079175;28;20499;-76
2022/06/04 06:25:22;;;;;;;7.50;6.80;;;;;;;19.06;76.09;100735.78;5084345;28;20044;-75
2022/06/04 06:27:47;;;;;;;8.20;7.38;;;;;;;18.76;76.83;100740.50;5082084;28;20040;-76
2022/06/04 06:30:13;;;;;;;10.13;7.70;;;;;;;18.61;74.99;100741.88;5079999;28;20071;-75
2022/06/04 06:32:40;;;;;;;8.18;6.68;;;;;;;18.43;74.54;100739.88;5083051;28;20039;-75
2022/06/04 06:35:06;;;;;;;8.00;6.82;;;;;;;18.51;74.97;100735.13;5080947;28;20473;-76
2022/06/04 06:37:31;;;;;;;7.53;6.82;;;;;;;18.66;75.72;100737.25;5069083;28;20560;-75
2022/06/04 06:39:57;;;;;;;7.88;6.82;;;;;;;18.81;75.19;100741.16;5073360;28;20029;-75
2022/06/04 06:42:22;;;;;;;7.90;7.10;;;;;;;18.95;73.30;100732.66;5067926;28;20036;-75
2022/06/04 06:44:55;;;;;;;7.05;6.35;;;;;;;19.10;72.24;100739.19;5075209;28;20028;-75
2022/06/04 06:47:21;;;;;;;8.20;7.40;;;;;;;19.23;69.83;100738.69;5079288;28;20090;-75
2022/06/04 06:49:47;;;;;;;7.90;6.43;;;;;;;19.24;69.56;100743.09;5070700;28;20021;-75
2022/06/04 06:52:13;;;;;;;7.55;6.82;;;;;;;19.29;69.24;100755.44;5079615;28;20509;-75
2022/06/04 06:54:39;;;;;;;7.15;6.45;;;;;;;19.30;69.85;100751.81;5079243;28;20055;-75
2022/06/04 06:57:07;;;;;;;10.80;7.25;;;;;;;19.41;69.20;100761.19;5073886;28;20478;-75
2022/06/04 06:59:33;;;;;;;7.43;6.65;;;;;;;19.51;68.74;100759.00;5083977;28;20093;-75
2022/06/04 07:01:59;;;;;;;7.25;6.47;;;;;;;19.61;68.35;100756.84;5075783;28;20040;-75
2022/06/04 07:04:26;;;;;;;7.32;6.35;;;;;;;19.69;67.98;100766.34;5074129;28;20040;-75
2022/06/04 07:06:55;;;;;;;7.47;6.78;;;;;;;19.75;68.08;100769.72;5085100;28;20036;-75
2022/06/04 07:09:27;;;;;;;9.15;7.40;;;;;;;19.76;68.14;100771.47;5081428;28;20395;-75
2022/06/04 07:11:52;;;;;;;;;;;;;;;19.57;67.03;100780.19;5078518;28;20494;-75
2022/06/04 07:14:19;;;;;;;8.13;7.32;;;;;;;19.64;67.87;100784.34;5083543;28;19951;-75
2022/06/04 07:16:45;;;;;;;7.70;6.90;;;;;;;19.72;68.49;100788.56;5083176;28;20507;-75
2022/06/04 07:19:13;;;;;;;7.80;7.10;;;;;;;19.65;67.53;100799.50;5080596;28;20032;-75
2022/06/04 07:21:38;;;;;;;7.45;6.68;;;;;;;19.42;67.00;100811.09;5083665;28;20165;-76
2022/06/04 07:24:04;;;;;;;7.55;6.80;;;;;;;19.34;67.69;100801.63;5078319;28;20116;-75
2022/06/04 07:26:30;;;;;;;8.00;6.85;;;;;;;19.26;68.50;100808.16;5078677;28;20151;-75
2022/06/04 07:28:56;;;;;;;8.57;6.93;;;;;;;19.10;67.19;100801.63;5084067;28;20102;-75
2022/06/04 07:31:22;;;;;;;8.57;6.28;;;;;;;19.25;67.64;100797.50;5081278;28;20040;-75
2022/06/04 07:33:52;;;;;;;7.43;6.72;;;;;;;19.40;67.49;100798.72;5079963;28;20391;-75
2022/06/04 07:36:20;;;;;;;6.90;6.20;;;;;;;19.29;66.00;100799.13;5076956;28;20033;-75
2022/06/04 07:38:46;;;;;;;7.63;6.93;;;;;;;19.26;66.55;100809.97;5082753;28;20093;-75
2022/06/04 07:41:19;;;;;;;8.73;6.78;;;;;;;19.29;67.91;100808.97;5081764;28;20056;-76
2022/06/04 07:43:44;;;;;;;6.80;6.20;;;;;;;19.31;66.76;100807.06;5078919;28;20390;-75
2022/06/04 07:46:10;;;;;;;7.65;6.72;;;;;;;19.37;66.23;100807.72;5079187;28;20028;-75
2022/06/04 07:48:35;;;;;;;7.82;6.20;;;;;;;19.54;66.77;100801.72;5079984;28;20117;-75
2022/06/04 07:51:04;;;;;;;6.88;6.20;;;;;;;19.64;66.81;100805.78;5080955;28;20658;-75
2022/06/04 07:53:30;;;;;;;7.45;6.60;;;;;;;19.75;66.32;100816.09;5074265;28;20047;-75
2022/06/04 07:55:55;;;;;;;7.57;6.70;;;;;;;19.79;66.71;100811.50;5084689;28;20040;-75
2022/06/04 07:58:21;;;;;;;7.40;6.70;;;;;;;19.89;65.60;100821.78;5080104;28;20035;-75
2022/06/04 08:00:46;;;;;;;8.60;7.32;;;;;;;19.87;65.03;100822.78;5083271;28;20035;-75
2022/06/04 08:03:11;;;;;;;8.80;6.22;;;;;;;19.94;65.66;100818.94;5077735;28;20044;-75
2022/06/04 08:05:39;;;;;;;7.80;7.00;;;;;;;20.03;65.88;100821.22;5081849;28;20043;-75
2022/06/04 08:08:04;;;;;;;7.78;6.78;;;;;;;20.12;66.86;100817.28;5075078;28;20032;-75
2022/06/04 08:10:29;;;;;;;6.30;5.70;;;;;;;20.25;66.38;100814.97;5082379;28;20170;-75
2022/06/04 08:13:01;;;;;;;7.70;7.00;;;;;;;20.29;66.44;100819.28;5079687;28;20044;-75
2022/06/04 08:15:26;;;;;;;7.70;6.90;;;;;;;20.40;65.58;100811.66;5081037;28;20530;-75
2022/06/04 08:17:52;;;;;;;10.43;8.52;;;;;;;20.46;65.85;100827.50;5081454;28;20056;-75
2022/06/04 08:20:18;;;;;;;8.65;7.68;;;;;;;20.38;66.72;100829.59;5079666;28;20071;-75
2022/06/04 08:22:44;;;;;;;10.05;9.05;;;;;;;20.23;66.67;100825.78;5082018;28;20119;-75
2022/06/04 08:25:09;;;;;;;11.02;9.80;;;;;;;20.12;67.61;100834.25;5083234;28;20126;-75
2022/06/04 08:27:35;;;;;;;11.05;9.93;;;;;;;19.99;68.36;100834.78;5080156;28;20040;-75
2022/06/04 08:30:00;;;;;;;9.52;8.63;;;;;;;19.90;68.27;100839.59;5082350;28;20036;-75
2022/06/04 08:32:26;;;;;;;9.45;8.45;;;;;;;19.94;68.67;100845.72;5080936;28;20111;-74
2022/06/04 08:34:51;;;;;;;9.70;8.73;;;;;;;19.89;69.78;100840.53;5079128;28;20056;-76
2022/06/04 08:37:17;;;;;;;9.43;8.63;;;;;;;19.78;70.15;100840.09;5075449;28;20033;-75
2022/06/04 08:39:42;;;;;;;11.48;10.07;;;;;;;19.77;70.48;100837.47;5077493;28;20028;-74
2022/06/04 08:42:10;;;;;;;10.52;9.52;;;;;;;19.78;70.98;100840.09;5082545;28;20032;-75
2022/06/04 08:44:42;;;;;;;10.32;9.30;;;;;;;19.85;70.66;100841.59;5080799;28;20125;-76
2022/06/04 08:47:07;;;;;;;10.57;9.32;;;;;;;19.90;69.72;100844.94;5080502;28;20040;-75
2022/06/04 08:49:42;;;;;;;8.70;7.85;;;;;;;19.90;68.95;100844.09;5082505;28;20481;-75
2022/06/04 08:52:13;;;;;;;9.02;8.18;;;;;;;19.85;69.04;100848.75;5075679;28;20054;-75
2022/06/04 08:57:33;;;;;;;8.02;7.22;;;;;;;19.87;68.74;100852.25;5079015;28;20036;-75
2022/06/04 09:00:10;;;;;;;9.13;8.32;;;;;;;20.00;69.71;100858.84;5079050;28;20442;-75
2022/06/04 09:02:41;;;;;;;9.52;8.63;;;;;;;19.96;68.40;100851.88;5080447;28;20044;-76
2022/06/04 09:05:26;;;;;;;9.97;8.70;;;;;;;19.96;69.74;100857.22;5079061;28;20039;-75
2022/06/04 09:07:59;;;;;;;8.55;7.75;;;;;;;19.96;69.54;100862.56;5079788;28;20033;-74
2022/06/04 09:10:34;;;;;;;8.05;7.25;;;;;;;19.96;69.29;100864.41;5076984;28;20036;-73
2022/06/04 09:13:09;;;;;;;9.30;8.07;;;;;;;19.96;69.29;100859.91;5080092;28;20395;-73
2022/06/04 09:15:41;;;;;;;9.40;8.50;;;;;;;19.98;69.57;100862.53;5080490;28;20065;-73
2022/06/04 09:18:35;;;;;;;8.23;7.40;;;;;;;20.09;67.95;100866.50;5085467;28;20407;-73
2022/06/04 09:21:04;;;;;;;9.27;7.80;;;;;;;20.13;67.76;100869.97;5082976;28;20047;-74
2022/06/04 09:23:46;;;;;;;7.72;7.03;;;;;;;20.24;67.72;100865.03;5083835;28;20067;-74
2022/06/04 09:26:14;;;;;;;8.93;7.82;;;;;;;20.29;67.36;100870.19;5078503;28;20433;-75
2022/06/04 09:29:00;;;;;;;9.05;7.97;;;;;;;20.30;67.63;100869.25;5086488;28;20031;-74
2022/06/04 09:31:55;;;;;;;7.82;7.03;;;;;;;20.53;67.86;100868.31;5086427;28;20044;-74
2022/06/04 09:34:29;;;;;;;10.30;8.60;;;;;;;20.64;67.38;100875.94;5076284;28;20028;-74
2022/06/04 09:36:56;;;;;;;9.18;8.23;;;;;;;20.68;67.86;100875.75;5085216;28;20040;-74
2022/06/04 09:39:31;;;;;;;8.77;7.97;;;;;;;20.79;67.76;100881.50;5085155;28;20040;-74
2022/06/04 09:42:00;;;;;;;8.02;7.22;;;;;;;20.98;66.78;100884.25;5072095;28;20027;-73
2022/06/04 09:44:27;;;;;;;9.48;8.57;;;;;;;21.16;66.67;100879.03;5083468;28;20039;-74
2022/06/04 09:47:06;;;;;;;8.95;8.13;;;;;;;21.14;65.41;100883.56;5085730;28;20178;-74
2022/06/04 09:49:42;;;;;;;9.27;7.43;;;;;;;20.93;65.57;100888.09;5081167;28;20501;-74
2022/06/04 09:52:22;;;;;;;7.75;7.05;;;;;;;20.82;66.21;100887.69;5082494;28;20045;-74
2022/06/04 09:54:58;;;;;;;7.00;6.32;;;;;;;20.85;66.75;100884.88;5081373;28;20491;-74
2022/06/04 09:57:31;;;;;;;7.38;6.47;;;;;;;21.00;65.59;100887.75;5077640;28;20047;-74
2022/06/04 09:59:59;;;;;;;7.97;7.15;;;;;;;21.09;64.80;100899.00;5077827;28;20063;-73
2022/06/04 10:02:24;;;;;;;6.40;5.80;;;;;;;21.16;63.86;100893.31;5085818;28;20036;-73
2022/06/04 10:05:06;;;;;;;7.90;5.93;;;;;;;21.28;62.72;100899.09;5081978;28;20552;-73
2022/06/04 10:07:40;;;;;;;;;;;;;;;21.30;59.42;100906.13;5084204;28;20448;-73
2022/06/04 10:10:37;;;;;;;6.45;5.30;;;;;;;21.10;60.46;100904.31;5079182;28;20003;-73
2022/06/04 10:16:14;;;;;;;5.75;4.97;;;;;;;20.98;61.36;100905.72;5083925;28;20036;-73
2022/06/04 10:18:40;;;;;;;5.20;4.50;;;;;;;21.14;60.53;100911.31;5080489;28;20121;-73
2022/06/04 10:21:27;;;;;;;5.70;4.43;;;;;;;21.31;58.78;100912.38;5083382;28;20499;-73
2022/06/04 10:23:54;;;;;;;6.22;4.15;;;;;;;21.49;58.62;100903.53;5081494;28;20067;-73
2022/06/04 10:26:49;;;;;;;5.25;4.22;;;;;;;21.56;57.77;100896.03;5082762;28;20046;-73
2022/06/04 10:29:36;;;;;;;6.22;4.10;;;;;;;21.54;55.06;100904.19;5084121;28;20040;-74
2022/06/04 10:32:35;;;;;;;6.57;4.10;;;;;;;21.57;54.74;100905.84;5083097;28;20120;-73
2022/06/04 10:35:06;;;;;;;7.18;4.63;;;;;;;21.49;53.17;100899.97;5085549;28;20036;-72
2022/06/04 10:38:06;;;;;;;6.70;4.30;;;;;;;21.22;52.48;100905.56;5083768;28;20509;-73
2022/06/04 10:40:43;;;;;;;6.13;3.95;;;;;;;20.86;53.89;100911.63;5084064;28;20028;-73
2022/06/04 10:43:25;;;;;;;5.68;4.03;;;;;;;20.84;53.58;100905.47;5080059;28;20036;-73
2022/06/04 10:45:59;;;;;;;;;;;;;;;20.78;54.37;100897.69;5078085;28;20055;-73
2022/06/04 10:48:37;;;;;;;5.53;4.40;;;;;;;20.90;54.58;100902.50;5080227;28;19935;-73
2022/06/04 10:51:26;;;;;;;6.10;4.00;;;;;;;21.02;55.20;100895.75;5081518;28;20071;-73
2022/06/04 10:54:10;;;;;;;4.63;3.97;;;;;;;21.12;53.73;100898.91;5081791;28;20086;-73
2022/06/04 10:56:47;;;;;;;5.80;4.63;;;;;;;20.94;53.57;100897.91;5079517;28;20127;-73
2022/06/04 10:59:43;;;;;;;5.10;4.13;;;;;;;20.89;54.77;100905.28;5078931;28;20490;-73
2022/06/04 11:02:35;;;;;;;7.35;4.80;;;;;;;20.72;54.57;100908.66;5081796;28;20054;-73
2022/06/04 11:05:07;;;;;;;6.28;4.50;;;;;;;20.72;54.58;100914.00;5083803;28;20032;-73
2022/06/04 11:07:53;;;;;;;6.78;4.72;;;;;;;20.46;55.33;100913.28;5080467;28;20521;-73
2022/06/04 11:10:24;;;;;;;5.53;4.60;;;;;;;20.47;55.59;100915.03;5078046;28;20647;-72
2022/06/04 11:13:12;;;;;;;8.02;4.57;;;;;;;20.48;56.23;100908.72;5082683;28;20061;-74
2022/06/04 11:15:40;;;;;;;6.53;4.63;;;;;;;20.58;55.88;100911.91;5080420;28;20036;-72
2022/06/04 11:18:28;;;;;;;7.40;5.13;;;;;;;20.60;56.69;100919.91;5079897;28;20047;-72
2022/06/04 11:21:23;;;;;;;5.82;4.65;;;;;;;20.35;56.87;100921.75;5082519;28;20085;-72
2022/06/04 11:23:55;;;;;;;5.80;4.70;;;;;;;20.33;56.83;100925.41;5083389;28;20032;-73
2022/06/04 11:26:39;;;;;;;5.63;4.53;;;;;;;20.28;56.56;100930.13;5061839;28;20039;-73
2022/06/04 11:29:06;;;;;;;7.28;4.82;;;;;;;20.32;56.26;100926.38;5079557;28;20036;-73
2022/06/04 11:32:02;;;;;;;6.10;4.97;;;;;;;20.43;56.95;100932.16;5064455;28;20059;-72
2022/06/04 11:35:01;;;;;;;6.65;4.78;;;;;;;20.50;56.19;100930.09;5077095;28;20032;-74
2022/06/04 11:38:06;;;;;;;6.10;4.50;;;;;;;20.65;55.99;100931.31;5081130;28;20111;-73
2022/06/04 11:40:55;;;;;;;6.22;4.82;;;;;;;20.70;56.22;100937.38;5079622;28;20028;-73
2022/06/04 11:43:57;;;;;;;5.45;4.63;;;;;;;20.87;56.10;100932.16;5079213;28;20028;-73
2022/06/04 11:46:29;;;;;;;;;;;;;;;20.94;55.69;100936.31;5062633;28;20039;-72
2022/06/04 11:49:05;;;;;;;5.57;4.90;;;;;;;21.04;55.36;100928.75;5077777;28;19955;-74
2022/06/04 11:51:45;;;;;;;5.50;4.88;;;;;;;21.24;55.05;100923.38;5074187;28;20106;-73
2022/06/04 11:54:38;;;;;;;5.72;4.60;;;;;;;21.40;53.77;100923.59;5079898;28;20040;-74